Time;durP1;ratioP1;P1;durP2;ratioP2;P2;SDS_P1;SDS_P2;PMS_P1;PMS_P2;Temp;Humidity;BMP_temperature;BMP_pressure;BME280_temperature;BME280_humidity;BME280_pressure;Samples;Min_cycle;Max_cycle;Signal;HPM_P1;HPM_P2
2022/11/01 00:02:03;;;;;;;31.23;17.05;;;12.70;99.90;;;;;;5018773;28;20046;-87
2022/11/01 00:04:28;;;;;;;24.52;14.57;;;12.60;99.90;;;;;;5004343;28;20548;-84
2022/11/01 00:06:54;;;;;;;31.27;15.60;;;12.70;99.90;;;;;;5014114;28;20053;-82
2022/11/01 00:09:21;;;;;;;35.03;17.13;;;12.70;99.90;;;;;;5013205;28;20073;-84
2022/11/01 00:11:47;;;;;;;32.72;16.20;;;12.70;99.90;;;;;;4981726;28;20107;-86
2022/11/01 00:14:14;;;;;;;22.13;14.02;;;12.70;99.90;;;;;;5017754;28;20102;-86
2022/11/01 00:16:41;;;;;;;28.35;13.80;;;12.70;99.90;;;;;;5014074;28;20050;-86
2022/11/01 00:19:07;;;;;;;33.47;14.70;;;12.70;99.90;;;;;;4999311;28;20052;-83
2022/11/01 00:21:33;;;;;;;35.88;15.18;;;12.80;99.90;;;;;;4998695;28;20069;-84
2022/11/01 00:23:59;;;;;;;26.95;14.52;;;12.80;99.90;;;;;;4997856;28;20050;-82
2022/11/01 00:26:25;;;;;;;30.92;13.88;;;12.80;99.90;;;;;;4997893;28;20064;-84
2022/11/01 00:28:51;;;;;;;21.77;13.65;;;12.80;99.90;;;;;;5017790;28;20104;-82
2022/11/01 00:31:19;;;;;;;26.55;12.98;;;12.80;99.90;;;;;;5014678;28;20114;-81
2022/11/01 00:33:46;;;;;;;24.35;13.27;;;12.80;99.90;;;;;;5015110;28;20108;-85
2022/11/01 00:36:12;;;;;;;28.52;13.13;;;12.80;99.90;;;;;;5016466;28;20077;-82
2022/11/01 00:38:39;;;;;;;20.20;12.15;;;12.80;99.90;;;;;;5021333;28;20429;-83
2022/11/01 00:41:05;;;;;;;26.48;13.48;;;12.80;99.90;;;;;;4979494;28;20054;-83
2022/11/01 00:43:32;;;;;;;28.90;13.20;;;12.80;99.90;;;;;;5013067;28;20125;-86
2022/11/01 00:45:58;;;;;;;23.73;12.75;;;12.80;99.90;;;;;;5014304;28;20046;-83
2022/11/01 00:48:25;;;;;;;24.52;13.02;;;12.80;99.90;;;;;;5013842;28;20065;-84
2022/11/01 00:50:51;;;;;;;26.13;12.80;;;12.80;99.90;;;;;;4997950;28;20069;-86
2022/11/01 00:53:17;;;;;;;19.90;10.95;;;12.80;99.90;;;;;;5002345;28;20405;-85
2022/11/01 00:55:43;;;;;;;22.50;12.25;;;12.80;99.90;;;;;;4995240;28;20042;-83
2022/11/01 00:58:09;;;;;;;23.02;12.40;;;12.80;99.90;;;;;;5017474;28;20061;-85
2022/11/01 01:00:35;;;;;;;23.10;11.90;;;12.80;99.90;;;;;;5014289;28;20060;-85
2022/11/01 01:03:02;;;;;;;21.88;11.98;;;12.80;99.90;;;;;;5012526;28;20050;-87
2022/11/01 01:05:28;;;;;;;25.52;12.50;;;12.80;99.90;;;;;;5012556;28;20042;-80
2022/11/01 01:07:54;;;;;;;22.40;11.60;;;12.80;99.90;;;;;;4998168;28;20512;-85
2022/11/01 01:10:21;;;;;;;24.63;12.48;;;12.80;99.90;;;;;;5011750;28;20116;-82
2022/11/01 01:12:47;;;;;;;23.75;11.63;;;12.80;99.90;;;;;;4999149;28;20111;-82
2022/11/01 01:15:13;;;;;;;22.88;11.82;;;12.80;99.90;;;;;;5015926;28;20108;-86
2022/11/01 01:17:39;;;;;;;23.70;12.15;;;12.80;99.90;;;;;;4978128;28;20141;-90
2022/11/01 01:20:06;;;;;;;24.52;12.10;;;12.80;99.90;;;;;;4994503;28;20758;-90
2022/11/01 01:22:32;;;;;;;24.30;12.43;;;12.80;99.90;;;;;;5001193;28;20054;-82
2022/11/01 01:24:58;;;;;;;18.92;11.48;;;12.80;99.90;;;;;;4994856;28;20054;-83
2022/11/01 01:27:24;;;;;;;21.63;11.40;;;12.80;99.90;;;;;;5011890;28;20067;-88
2022/11/01 01:29:51;;;;;;;26.40;11.82;;;12.80;99.90;;;;;;5015636;28;20335;-88
2022/11/01 01:32:23;;;;;;;20.40;10.75;;;12.90;99.90;;;;;;4996934;28;20080;-82
2022/11/01 01:34:49;;;;;;;26.23;12.18;;;12.90;99.90;;;;;;4982939;28;20065;-83
2022/11/01 01:37:15;;;;;;;19.63;10.40;;;12.90;99.90;;;;;;4997116;28;20058;-86
2022/11/01 01:39:42;;;;;;;22.67;11.23;;;12.90;99.90;;;;;;4993998;28;20402;-81
2022/11/01 01:42:30;;;;;;;19.08;9.85;;;13.00;99.90;;;;;;4993897;28;20046;-88
2022/11/01 01:44:56;;;;;;;22.02;10.23;;;13.00;99.90;;;;;;5016169;28;20738;-86
2022/11/01 01:47:25;;;;;;;20.45;10.23;;;13.00;99.90;;;;;;5019557;28;20498;-88
2022/11/01 01:49:57;;;;;;;17.48;9.48;;;13.00;99.90;;;;;;5011208;28;20065;-86
2022/11/01 01:52:24;;;;;;;22.17;9.82;;;13.10;99.90;;;;;;5011347;28;20046;-86
2022/11/01 01:54:50;;;;;;;17.67;10.00;;;13.10;99.90;;;;;;5011171;28;20149;-87
2022/11/01 01:57:18;;;;;;;24.02;9.15;;;13.20;99.90;;;;;;4993488;28;20049;-89
2022/11/01 01:59:44;;;;;;;17.92;10.75;;;13.20;99.90;;;;;;4994030;28;20490;-82
2022/11/01 02:02:11;;;;;;;15.40;9.35;;;13.20;99.90;;;;;;5019528;28;20375;-88
2022/11/01 02:04:44;;;;;;;18.17;9.52;;;13.30;99.90;;;;;;4996322;28;20498;-85
2022/11/01 02:07:11;;;;;;;20.98;9.27;;;13.30;99.90;;;;;;4993636;28;20319;-87
2022/11/01 02:09:38;;;;;;;17.92;9.60;;;13.30;99.90;;;;;;5011138;28;20050;-83
2022/11/01 02:12:05;;;;;;;18.45;9.13;;;13.30;99.90;;;;;;5011637;28;20054;-88
2022/11/01 02:14:31;;;;;;;20.52;9.07;;;13.40;99.90;;;;;;5013586;28;20398;-85
2022/11/01 02:17:06;;;;;;;16.17;9.45;;;13.30;99.90;;;;;;5021589;28;20139;-85
2022/11/01 02:19:53;;;;;;;15.48;7.72;;;13.40;99.90;;;;;;4993915;28;20069;-85
2022/11/01 02:23:00;;;;;;;17.88;9.05;;;13.40;99.90;;;;;;5011614;28;20391;-83
2022/11/01 02:26:23;;;;;;;19.17;8.63;;;13.40;99.90;;;;;;4994568;28;20057;-86
2022/11/01 02:29:03;;;;;;;18.27;8.65;;;13.50;99.90;;;;;;4937382;28;20226;-83
2022/11/01 02:31:56;;;;;;;19.98;8.40;;;13.50;99.90;;;;;;4965046;28;20500;-84
2022/11/01 02:34:47;;;;;;;21.58;8.65;;;13.50;99.90;;;;;;4986904;28;20054;-83
2022/11/01 02:37:38;;;;;;;16.63;7.78;;;13.50;99.90;;;;;;5013521;28;20049;-88
2022/11/01 02:40:14;;;;;;;23.33;8.38;;;13.50;99.90;;;;;;5014808;28;20085;-81
2022/11/01 02:42:47;;;;;;;17.85;8.13;;;13.50;99.90;;;;;;4979747;28;20050;-82
2022/11/01 02:45:41;;;;;;;18.90;8.40;;;13.50;99.90;;;;;;5015847;28;20054;-82
2022/11/01 02:48:07;;;;;;;17.60;8.70;;;13.50;99.90;;;;;;4999650;28;20046;-87
2022/11/01 02:50:39;;;;;;;18.83;8.63;;;13.60;99.90;;;;;;5009199;28;20100;-91
2022/11/01 02:53:06;;;;;;;15.88;8.73;;;13.60;99.90;;;;;;5020636;28;20061;-85
2022/11/01 02:55:35;;;;;;;20.83;8.27;;;13.60;99.90;;;;;;4986411;28;20073;-90
2022/11/01 02:58:10;;;;;;;19.88;8.88;;;13.60;99.90;;;;;;5019139;28;20081;-86
2022/11/01 03:00:36;;;;;;;16.65;8.35;;;13.60;99.90;;;;;;5016679;28;20050;-85
2022/11/01 03:03:11;;;;;;;19.60;9.05;;;13.60;99.90;;;;;;4998503;28;20638;-91
2022/11/01 03:05:56;;;;;;;19.17;10.07;;;13.60;99.90;;;;;;5015566;28;20049;-81
2022/11/01 03:08:27;;;;;;;16.90;9.15;;;13.60;99.90;;;;;;5020473;28;20042;-94
2022/11/01 03:11:21;;;;;;;15.18;8.25;;;13.60;99.90;;;;;;5024088;28;20045;-88
2022/11/01 03:13:50;;;;;;;16.73;9.43;;;13.60;99.90;;;;;;4997699;28;20076;-86
2022/11/01 03:16:24;;;;;;;15.88;9.32;;;13.60;99.90;;;;;;5014278;28;20399;-88
2022/11/01 03:19:22;;;;;;;17.58;8.27;;;13.60;99.90;;;;;;5015190;28;20056;-86
2022/11/01 03:21:57;;;;;;;16.65;7.57;;;13.60;99.90;;;;;;4997491;28;20061;-89
2022/11/01 03:24:30;;;;;;;16.98;8.68;;;13.60;99.90;;;;;;5017843;28;20525;-85
2022/11/01 03:27:27;;;;;;;18.13;7.72;;;13.70;99.90;;;;;;5009063;28;20053;-93
2022/11/01 03:30:00;;;;;;;21.20;7.18;;;13.70;99.90;;;;;;4982914;28;20060;-93
2022/11/01 03:32:37;;;;;;;18.20;8.75;;;13.70;99.90;;;;;;4997054;28;20057;-89
2022/11/01 03:35:07;;;;;;;13.52;6.78;;;13.70;99.90;;;;;;4965620;28;20057;-81
2022/11/01 03:37:37;;;;;;;20.90;8.35;;;13.70;99.90;;;;;;5017746;28;20153;-92
2022/11/01 03:40:05;;;;;;;17.65;7.57;;;13.70;99.90;;;;;;5015525;28;20046;-84
2022/11/01 03:42:33;;;;;;;16.35;7.60;;;13.80;99.90;;;;;;5026689;28;20065;-91
2022/11/01 03:45:05;;;;;;;23.33;7.97;;;13.80;99.90;;;;;;5014316;28;20698;-89
2022/11/01 03:47:31;;;;;;;17.70;8.20;;;13.80;99.90;;;;;;5014326;28;20609;-88
2022/11/01 03:50:17;;;;;;;19.10;8.48;;;13.80;99.90;;;;;;5013931;28;20053;-88
2022/11/01 03:52:43;;;;;;;16.45;7.05;;;13.90;99.90;;;;;;4996565;28;20123;-90
2022/11/01 03:55:19;;;;;;;16.95;8.32;;;13.90;99.90;;;;;;4995790;28;20069;-92
2022/11/01 03:57:49;;;;;;;15.18;6.93;;;13.90;99.90;;;;;;5023962;28;20435;-92
2022/11/01 04:00:37;;;;;;;17.88;6.93;;;13.90;99.90;;;;;;5018948;28;20054;-82
2022/11/01 04:03:03;;;;;;;19.90;7.57;;;13.90;99.90;;;;;;5019579;28;20089;-92
2022/11/01 04:05:30;;;;;;;17.83;7.75;;;13.90;99.90;;;;;;5013040;28;20482;-82
2022/11/01 04:07:56;;;;;;;14.40;7.55;;;14.00;99.90;;;;;;4996395;28;20045;-91
2022/11/01 04:10:24;;;;;;;19.48;6.75;;;13.90;99.90;;;;;;5013210;28;20129;-89
2022/11/01 04:12:51;;;;;;;13.10;6.97;;;13.90;99.90;;;;;;4999981;28;20560;-83
2022/11/01 04:21:10;;;;;;;14.45;7.50;;;14.00;99.90;;;;;;5021427;28;20054;-86
2022/11/01 04:23:36;;;;;;;15.82;8.18;;;14.00;99.90;;;;;;4998560;28;20049;-86
2022/11/01 04:26:04;;;;;;;12.65;6.88;;;14.00;99.90;;;;;;5013800;28;20072;-82
2022/11/01 04:28:30;;;;;;;13.95;6.45;;;14.10;99.90;;;;;;5015135;28;20118;-83
2022/11/01 04:30:56;;;;;;;16.70;6.20;;;14.10;99.90;;;;;;5024325;28;20061;-84
2022/11/01 04:33:22;;;;;;;15.65;6.60;;;14.10;99.90;;;;;;5014752;28;20052;-91
2022/11/01 04:35:48;;;;;;;13.35;6.80;;;14.20;99.90;;;;;;5000115;28;20085;-85
2022/11/01 04:38:14;;;;;;;14.98;6.55;;;14.20;99.90;;;;;;4998286;28;20061;-90
2022/11/01 04:40:42;;;;;;;12.77;6.40;;;14.30;99.90;;;;;;5014903;28;20133;-85
2022/11/01 04:43:08;;;;;;;12.93;6.80;;;14.30;99.90;;;;;;5015329;28;20060;-82
2022/11/01 04:45:34;;;;;;;11.82;6.07;;;14.40;99.90;;;;;;5003164;28;20135;-83
2022/11/01 04:48:07;;;;;;;18.42;7.63;;;14.40;99.90;;;;;;5004014;28;20160;-83
2022/11/01 04:50:34;;;;;;;17.88;7.45;;;14.50;99.90;;;;;;5005098;28;20105;-81
2022/11/01 04:53:01;;;;;;;16.40;7.15;;;14.50;99.90;;;;;;5003319;28;20095;-85
2022/11/01 04:55:27;;;;;;;13.82;6.22;;;14.60;99.90;;;;;;5021082;28;20123;-82
2022/11/01 04:57:53;;;;;;;12.43;6.85;;;14.60;99.90;;;;;;5021094;28;20077;-82
2022/11/01 05:00:21;;;;;;;12.23;6.60;;;14.60;99.90;;;;;;5019808;28;20061;-82
2022/11/01 05:02:48;;;;;;;13.40;5.97;;;14.60;99.90;;;;;;5016700;28;20049;-85
2022/11/01 05:05:14;;;;;;;19.25;7.30;;;14.70;99.90;;;;;;4999006;28;20108;-81
2022/11/01 05:07:39;;;;;;;13.20;5.45;;;14.80;99.90;;;;;;5012136;28;20057;-81
2022/11/01 05:10:07;;;;;;;12.88;6.03;;;14.80;99.90;;;;;;5011982;28;20054;-82
2022/11/01 05:12:33;;;;;;;11.05;5.65;;;14.80;99.90;;;;;;4995876;28;20054;-84
2022/11/01 05:14:59;;;;;;;12.38;5.40;;;14.90;99.90;;;;;;5014506;28;20100;-83
2022/11/01 05:17:24;;;;;;;14.52;5.00;;;14.90;99.90;;;;;;5016502;28;20049;-82
2022/11/01 05:19:50;;;;;;;10.57;4.80;;;14.80;99.90;;;;;;5019408;28;20070;-81
2022/11/01 05:22:16;;;;;;;12.77;6.03;;;14.80;99.90;;;;;;4995377;28;20081;-83
2022/11/01 05:24:42;;;;;;;10.73;4.57;;;14.80;99.90;;;;;;5012022;28;20045;-82
2022/11/01 05:27:08;;;;;;;11.15;4.13;;;14.80;99.90;;;;;;4978565;28;20406;-87
2022/11/01 05:29:34;;;;;;;11.23;4.55;;;14.90;99.90;;;;;;5014440;28;20060;-87
2022/11/01 05:32:00;;;;;;;6.15;3.25;;;14.90;99.90;;;;;;5014831;28;20046;-81
2022/11/01 05:34:27;;;;;;;8.70;2.70;;;14.80;99.90;;;;;;5012678;28;20135;-82
2022/11/01 05:36:53;;;;;;;8.68;3.05;;;14.80;99.90;;;;;;5017814;28;20053;-87
2022/11/01 05:39:19;;;;;;;8.68;2.25;;;14.70;99.90;;;;;;5011690;28;20269;-83
2022/11/01 05:41:45;;;;;;;8.23;1.80;;;14.70;99.90;;;;;;5012739;28;20140;-84
2022/11/01 05:44:11;;;;;;;9.85;2.15;;;14.60;99.90;;;;;;5003100;28;20046;-84
2022/11/01 05:46:37;;;;;;;4.72;1.10;;;14.60;99.90;;;;;;5012258;28;20413;-87
2022/11/01 05:49:03;;;;;;;5.90;1.48;;;14.50;99.90;;;;;;4994324;28;20145;-84
2022/11/01 05:51:29;;;;;;;6.97;1.27;;;14.50;99.90;;;;;;5012903;28;20062;-85
2022/11/01 05:53:54;;;;;;;6.22;1.15;;;14.40;99.90;;;;;;5016332;28;20125;-89
2022/11/01 05:56:20;;;;;;;6.97;1.50;;;14.30;99.90;;;;;;4999994;28;20050;-87
2022/11/01 05:58:46;;;;;;;6.95;1.45;;;14.30;99.90;;;;;;4978930;28;20050;-84
2022/11/01 06:01:12;;;;;;;6.18;1.15;;;14.30;99.90;;;;;;4993725;28;20053;-83
2022/11/01 06:03:38;;;;;;;7.15;1.23;;;14.30;99.90;;;;;;4994843;28;20203;-89
2022/11/01 06:06:04;;;;;;;5.43;1.10;;;14.30;99.90;;;;;;5011954;28;20513;-83
2022/11/01 06:08:31;;;;;;;6.47;1.20;;;14.20;99.90;;;;;;5015125;28;20053;-88
2022/11/01 06:11:02;;;;;;;7.40;1.15;;;14.30;99.90;;;;;;5019869;28;20041;-84
2022/11/01 06:13:28;;;;;;;6.03;1.20;;;14.20;99.90;;;;;;4999571;28;20064;-85
2022/11/01 06:16:02;;;;;;;11.68;2.22;;;14.10;99.90;;;;;;5011878;28;20054;-83
2022/11/01 06:18:29;;;;;;;5.10;1.38;;;14.10;99.90;;;;;;4993841;28;20076;-82
2022/11/01 06:21:00;;;;;;;5.25;1.48;;;14.00;99.90;;;;;;5020314;28;20057;-85
2022/11/01 06:23:26;;;;;;;6.72;1.13;;;13.90;99.90;;;;;;5001400;28;20048;-87
2022/11/01 06:26:02;;;;;;;6.50;1.30;;;13.90;99.90;;;;;;4994343;28;20038;-91
2022/11/01 06:28:31;;;;;;;6.20;1.20;;;13.90;99.90;;;;;;5026102;28;20089;-80
2022/11/01 06:31:01;;;;;;;6.00;1.58;;;13.90;99.90;;;;;;5007909;28;20050;-81
2022/11/01 06:33:28;;;;;;;11.82;1.73;;;13.80;99.90;;;;;;5008047;28;20078;-85
2022/11/01 06:35:55;;;;;;;12.95;3.22;;;13.80;99.90;;;;;;5008379;28;20190;-82
2022/11/01 06:38:21;;;;;;;11.05;1.80;;;13.80;99.90;;;;;;4989241;28;20050;-83
2022/11/01 06:40:47;;;;;;;13.48;1.65;;;13.80;99.90;;;;;;5023218;28;20049;-83
2022/11/01 06:43:14;;;;;;;13.13;1.55;;;13.70;99.90;;;;;;5007514;28;20054;-83
2022/11/01 06:45:40;;;;;;;6.63;1.55;;;13.70;99.90;;;;;;5024084;28;20054;-83
2022/11/01 06:48:06;;;;;;;8.65;1.60;;;13.70;99.90;;;;;;5024609;28;20041;-84
2022/11/01 06:50:32;;;;;;;7.85;1.20;;;13.70;99.90;;;;;;5011607;28;20053;-84
2022/11/01 06:53:09;;;;;;;4.57;1.25;;;13.60;99.90;;;;;;5009766;28;20060;-83
2022/11/01 06:55:38;;;;;;;7.03;1.23;;;13.50;99.90;;;;;;5024938;28;20046;-84
2022/11/01 06:58:04;;;;;;;11.07;1.70;;;13.60;99.90;;;;;;5025739;28;20058;-84
2022/11/01 07:00:31;;;;;;;5.38;1.20;;;13.60;99.90;;;;;;5007737;28;20046;-84
2022/11/01 07:03:14;;;;;;;10.25;2.22;;;13.50;99.90;;;;;;5026169;28;20049;-84
2022/11/01 07:05:41;;;;;;;10.30;1.83;;;13.50;99.90;;;;;;5012970;28;20438;-83
2022/11/01 07:08:11;;;;;;;10.73;2.38;;;13.50;99.90;;;;;;5008834;28;20049;-82
2022/11/01 07:10:39;;;;;;;13.63;1.83;;;13.50;99.90;;;;;;5003691;28;20050;-81
2022/11/01 07:13:06;;;;;;;10.60;2.17;;;13.50;99.90;;;;;;5018436;28;20050;-82
2022/11/01 07:15:33;;;;;;;8.70;1.50;;;13.60;99.90;;;;;;5000404;28;20050;-82
2022/11/01 07:18:01;;;;;;;11.82;2.10;;;13.60;99.90;;;;;;5021468;28;20138;-82
2022/11/01 07:20:29;;;;;;;9.02;1.52;;;13.60;99.90;;;;;;4999422;28;20053;-87
2022/11/01 07:23:04;;;;;;;15.10;2.85;;;13.60;99.90;;;;;;4998303;28;20054;-86
2022/11/01 07:25:31;;;;;;;10.02;1.60;;;13.60;99.90;;;;;;5000189;28;20065;-86
2022/11/01 07:27:58;;;;;;;10.82;1.90;;;13.60;99.90;;;;;;4984973;28;20061;-83
2022/11/01 07:30:25;;;;;;;14.48;2.45;;;13.60;99.90;;;;;;5020432;28;20144;-86
2022/11/01 07:32:56;;;;;;;10.48;1.98;;;13.50;99.90;;;;;;5014409;28;20046;-84
2022/11/01 07:35:23;;;;;;;11.30;1.60;;;13.60;99.90;;;;;;4996020;28;20050;-83
2022/11/01 07:37:49;;;;;;;11.32;1.60;;;13.60;99.90;;;;;;5014345;28;20076;-87
2022/11/01 07:40:15;;;;;;;12.75;2.00;;;13.60;99.90;;;;;;4982187;28;20129;-81
2022/11/01 07:42:42;;;;;;;14.18;2.97;;;13.70;99.90;;;;;;5018579;28;20054;-83
2022/11/01 07:45:10;;;;;;;9.80;2.20;;;13.80;99.90;;;;;;5021369;28;20062;-86
2022/11/01 07:47:36;;;;;;;12.02;2.20;;;13.80;99.90;;;;;;4996839;28;20054;-90
2022/11/01 07:50:03;;;;;;;12.88;2.35;;;13.80;99.90;;;;;;5014064;28;20092;-82
2022/11/01 07:52:29;;;;;;;12.60;2.58;;;13.80;99.90;;;;;;4995640;28;20692;-85
2022/11/01 07:54:55;;;;;;;17.15;3.13;;;13.80;99.90;;;;;;4996307;28;20320;-81
2022/11/01 07:57:21;;;;;;;41.72;3.42;;;13.80;99.90;;;;;;4999881;28;20085;-86
2022/11/01 07:59:47;;;;;;;13.35;2.45;;;13.80;99.90;;;;;;5019863;28;20046;-83
2022/11/01 08:02:13;;;;;;;13.27;2.53;;;13.80;99.90;;;;;;5016220;28;20524;-88
2022/11/01 08:04:39;;;;;;;13.75;3.13;;;13.80;99.90;;;;;;5015929;28;20050;-85
2022/11/01 08:07:05;;;;;;;14.35;2.53;;;13.90;99.90;;;;;;5012828;28;20049;-82
2022/11/01 08:09:31;;;;;;;17.27;2.95;;;13.90;99.90;;;;;;4996186;28;20037;-85
2022/11/01 08:11:58;;;;;;;16.80;2.60;;;13.90;99.90;;;;;;4996962;28;20064;-81
2022/11/01 08:14:24;;;;;;;13.90;3.13;;;13.90;99.90;;;;;;5003149;28;20576;-83
2022/11/01 08:16:54;;;;;;;21.00;3.15;;;13.90;99.90;;;;;;5006356;28;20101;-86
2022/11/01 08:19:21;;;;;;;18.90;2.50;;;13.90;99.90;;;;;;4972644;28;20053;-85
2022/11/01 08:21:49;;;;;;;15.50;2.50;;;13.90;99.90;;;;;;5001053;28;20045;-82
2022/11/01 08:24:16;;;;;;;12.88;2.85;;;14.00;99.90;;;;;;4982040;28;20085;-84
2022/11/01 08:26:42;;;;;;;17.90;3.47;;;14.00;99.90;;;;;;5015617;28;20112;-85
2022/11/01 08:29:08;;;;;;;14.02;2.70;;;13.90;99.90;;;;;;4986844;28;20050;-88
2022/11/01 08:31:40;;;;;;;17.23;2.40;;;13.90;99.90;;;;;;5023918;28;20058;-86
2022/11/01 08:34:06;;;;;;;14.27;2.45;;;14.00;99.90;;;;;;5019440;28;20184;-86
2022/11/01 08:36:33;;;;;;;18.85;3.85;;;14.00;99.90;;;;;;5015197;28;20085;-88
2022/11/01 08:39:00;;;;;;;16.80;3.00;;;14.00;99.90;;;;;;4981942;28;20465;-84
2022/11/01 08:41:27;;;;;;;28.10;3.85;;;14.00;99.90;;;;;;5014659;28;20398;-83
2022/11/01 08:43:53;;;;;;;15.32;3.40;;;14.00;99.90;;;;;;4996465;28;20054;-86
2022/11/01 08:46:20;;;;;;;18.90;3.38;;;14.00;99.90;;;;;;5015832;28;20061;-90
2022/11/01 08:48:46;;;;;;;26.48;4.10;;;14.10;99.90;;;;;;5018730;28;20054;-84
2022/11/01 08:51:12;;;;;;;16.20;3.33;;;14.10;99.90;;;;;;4997359;28;20133;-84
2022/11/01 08:53:38;;;;;;;22.65;4.25;;;14.10;99.90;;;;;;5013831;28;20070;-85
2022/11/01 08:56:05;;;;;;;21.27;3.45;;;14.20;99.90;;;;;;5013966;28;20084;-84
2022/11/01 08:58:31;;;;;;;16.40;5.03;;;14.30;99.90;;;;;;5013221;28;20056;-88
2022/11/01 09:00:57;;;;;;;21.08;4.13;;;14.30;99.90;;;;;;5017901;28;20122;-86
2022/11/01 09:03:23;;;;;;;19.33;3.42;;;14.40;99.90;;;;;;4997789;28;20049;-81
2022/11/01 09:05:48;;;;;;;22.40;4.65;;;14.40;99.90;;;;;;5012947;28;20486;-89
2022/11/01 09:08:14;;;;;;;19.15;3.80;;;14.30;99.90;;;;;;5013610;28;20049;-83
2022/11/01 09:10:40;;;;;;;18.40;3.60;;;14.40;99.90;;;;;;5013982;28;20045;-83
2022/11/01 09:13:06;;;;;;;23.63;3.35;;;14.40;99.90;;;;;;5013714;28;20049;-82
2022/11/01 09:15:33;;;;;;;19.33;3.63;;;14.30;99.90;;;;;;5013525;28;20054;-89
2022/11/01 09:18:04;;;;;;;18.35;3.20;;;14.40;99.90;;;;;;5020020;28;20041;-82
2022/11/01 09:20:30;;;;;;;30.13;5.43;;;14.40;99.90;;;;;;4995426;28;20065;-87
2022/11/01 09:22:56;;;;;;;19.35;3.63;;;14.40;99.90;;;;;;5011676;28;20061;-89
2022/11/01 09:25:22;;;;;;;19.42;3.97;;;14.40;99.90;;;;;;5015576;28;20054;-81
2022/11/01 09:27:51;;;;;;;26.50;4.57;;;14.50;99.90;;;;;;4994462;28;20421;-87
2022/11/01 09:30:17;;;;;;;29.92;5.70;;;14.60;99.90;;;;;;4996229;28;20057;-87
2022/11/01 09:32:43;;;;;;;17.73;3.83;;;14.70;99.90;;;;;;5019038;28;20085;-89
2022/11/01 09:35:09;;;;;;;19.05;5.78;;;14.80;99.90;;;;;;5012750;28;20535;-82
2022/11/01 09:37:35;;;;;;;22.35;4.05;;;14.80;99.90;;;;;;5011839;28;20056;-82
2022/11/01 09:40:02;;;;;;;13.15;2.78;;;14.80;99.90;;;;;;5011938;28;20042;-87
2022/11/01 09:42:38;;;;;;;28.17;4.90;;;14.80;99.90;;;;;;5011839;28;20061;-85
2022/11/01 09:45:16;;;;;;;22.75;3.95;;;14.80;99.90;;;;;;4993805;28;20107;-83
2022/11/01 09:47:45;;;;;;;22.83;4.00;;;14.80;99.90;;;;;;5015196;28;20089;-81
2022/11/01 09:50:22;;;;;;;20.80;3.58;;;14.80;99.90;;;;;;4996353;28;20042;-83
2022/11/01 09:52:50;;;;;;;17.60;3.88;;;14.80;99.90;;;;;;4995201;28;20053;-83
2022/11/01 09:55:39;;;;;;;20.88;4.57;;;14.80;99.90;;;;;;5016574;28;20046;-84
2022/11/01 09:58:33;;;;;;;19.75;3.78;;;14.80;99.90;;;;;;5015788;28;20045;-82
2022/11/01 10:01:18;;;;;;;21.20;3.53;;;14.90;99.90;;;;;;5018336;28;20457;-84
2022/11/01 10:03:53;;;;;;;19.90;4.72;;;14.80;99.90;;;;;;5015758;28;20046;-84
2022/11/01 10:06:22;;;;;;;;;;;14.90;99.90;;;;;;5017689;28;20496;-82
2022/11/01 10:09:11;;;;;;;18.95;3.42;;;14.90;99.90;;;;;;5015003;28;19921;-84
2022/11/01 10:12:05;;;;;;;21.73;3.90;;;15.00;99.90;;;;;;5009510;28;20057;-87
2022/11/01 10:14:55;;;;;;;23.17;3.83;;;14.90;99.90;;;;;;5020898;28;20074;-82
2022/11/01 10:17:33;;;;;;;20.17;3.70;;;15.10;99.90;;;;;;4982302;28;20057;-83
2022/11/01 10:20:00;;;;;;;19.42;4.55;;;15.10;99.90;;;;;;4997275;28;20050;-82
2022/11/01 10:22:33;;;;;;;19.00;3.47;;;15.10;99.90;;;;;;5000114;28;20112;-84
2022/11/01 10:25:27;;;;;;;22.55;3.03;;;15.30;99.90;;;;;;4997398;28;20057;-83
2022/11/01 10:28:21;;;;;;;21.65;3.55;;;15.30;99.90;;;;;;4996894;28;20065;-82
2022/11/01 10:30:58;;;;;;;23.60;4.25;;;15.20;99.90;;;;;;4996868;28;20112;-85
2022/11/01 10:33:32;;;;;;;19.83;3.13;;;15.10;99.90;;;;;;4997904;28;20053;-83
2022/11/01 10:36:22;;;;;;;16.58;2.78;;;14.90;99.90;;;;;;5017445;28;20054;-82
2022/11/01 10:38:57;;;;;;;17.05;3.28;;;14.90;99.90;;;;;;5016225;28;20046;-84
2022/11/01 10:41:41;;;;;;;27.10;4.20;;;15.00;99.90;;;;;;5017164;28;20053;-83
2022/11/01 10:44:26;;;;;;;21.98;3.95;;;15.10;99.90;;;;;;5014763;28;20046;-86
2022/11/01 10:46:54;;;;;;;24.63;3.63;;;15.10;99.90;;;;;;4996851;28;20120;-84
2022/11/01 10:49:28;;;;;;;23.80;5.25;;;15.10;99.90;;;;;;5016044;28;20144;-83
2022/11/01 10:51:57;;;;;;;;;;;15.20;99.90;;;;;;5021553;28;20077;-84
2022/11/01 10:54:27;;;;;;;17.67;3.15;;;15.40;99.90;;;;;;5002286;28;20008;-82
2022/11/01 10:56:58;;;;;;;19.17;3.50;;;15.40;99.90;;;;;;5015946;28;20104;-82
2022/11/01 10:59:32;;;;;;;13.50;3.22;;;15.30;99.90;;;;;;5014196;28;20068;-83
2022/11/01 11:02:00;;;;;;;23.25;4.50;;;15.20;99.90;;;;;;5014573;28;20058;-82
2022/11/01 11:04:27;;;;;;;16.17;3.72;;;15.30;99.90;;;;;;4981385;28;20053;-82
2022/11/01 11:06:55;;;;;;;19.67;3.45;;;15.30;99.90;;;;;;4986311;28;20113;-87
2022/11/01 11:09:24;;;;;;;21.00;3.70;;;15.20;99.90;;;;;;5000094;28;20497;-83
2022/11/01 11:11:52;;;;;;;12.40;3.13;;;15.40;99.90;;;;;;5015293;28;20105;-82
2022/11/01 11:14:19;;;;;;;23.15;5.38;;;15.50;99.90;;;;;;4997491;28;20100;-82
2022/11/01 11:16:55;;;;;;;20.58;3.78;;;15.60;99.90;;;;;;5014708;28;20513;-82
2022/11/01 11:19:33;;;;;;;19.33;4.18;;;15.80;99.90;;;;;;5016193;28;20049;-86
2022/11/01 11:22:01;;;;;;;28.67;3.78;;;15.60;99.90;;;;;;5021151;28;20107;-82
2022/11/01 11:24:45;;;;;;;20.48;3.85;;;15.60;99.90;;;;;;4997135;28;20184;-82
2022/11/01 11:27:35;;;;;;;21.02;3.47;;;16.30;99.90;;;;;;5014207;28;20542;-83
2022/11/01 11:30:05;;;;;;;17.80;3.13;;;16.70;99.90;;;;;;5013396;28;20129;-84
2022/11/01 11:32:34;;;;;;;18.52;4.38;;;16.90;99.90;;;;;;4980422;28;20085;-88
2022/11/01 11:35:18;;;;;;;23.52;4.15;;;16.90;99.90;;;;;;4998235;28;20422;-86
2022/11/01 11:38:02;;;;;;;18.65;4.38;;;16.90;99.90;;;;;;4998010;28;20046;-83
2022/11/01 11:40:44;;;;;;;13.95;3.10;;;16.50;99.90;;;;;;4997449;28;20379;-86
2022/11/01 11:43:24;;;;;;;23.60;3.95;;;16.00;99.90;;;;;;4996564;28;20352;-84
2022/11/01 11:46:19;;;;;;;18.98;3.97;;;15.70;99.90;;;;;;4996066;28;20053;-82
2022/11/01 11:48:48;;;;;;;;;;;15.70;99.90;;;;;;5011324;28;20486;-82
2022/11/01 11:51:14;;;;;;;16.63;2.80;;;16.30;99.90;;;;;;5015302;28;19925;-84
2022/11/01 11:53:40;;;;;;;17.58;3.35;;;16.80;99.90;;;;;;4995641;28;20057;-83
2022/11/01 11:56:08;;;;;;;18.73;3.50;;;17.30;99.90;;;;;;5013225;28;20049;-85
2022/11/01 11:58:43;;;;;;;18.65;3.75;;;17.20;99.90;;;;;;5015864;28;20567;-87
2022/11/01 12:01:19;;;;;;;15.13;3.25;;;16.70;99.90;;;;;;5014822;28;20060;-83
2022/11/01 12:04:17;;;;;;;17.17;2.72;;;16.40;99.90;;;;;;4984540;28;20049;-85
2022/11/01 12:06:46;;;;;;;15.63;3.20;;;16.20;99.90;;;;;;5011393;28;20057;-83
2022/11/01 12:09:38;;;;;;;20.30;4.15;;;16.20;99.90;;;;;;5013386;28;20092;-84
2022/11/01 12:12:14;;;;;;;17.92;3.85;;;16.00;99.90;;;;;;5013365;28;20054;-86
2022/11/01 12:14:41;;;;;;;15.80;2.40;;;16.00;99.90;;;;;;4995403;28;20413;-83
2022/11/01 12:17:30;;;;;;;16.08;3.30;;;16.50;99.90;;;;;;4994372;28;20046;-83
2022/11/01 12:20:25;;;;;;;14.77;2.50;;;16.90;99.90;;;;;;5013430;28;20054;-82
2022/11/01 12:22:57;;;;;;;;;;;17.00;99.90;;;;;;5014266;28;20565;-82
2022/11/01 12:25:24;;;;;;;19.65;2.92;;;17.00;99.90;;;;;;4995065;28;19929;-82
2022/11/01 12:28:02;;;;;;;15.55;3.38;;;17.20;99.90;;;;;;5012220;28;20585;-82
2022/11/01 12:30:32;;;;;;;20.70;2.78;;;17.50;99.90;;;;;;4995995;28;20081;-84
2022/11/01 12:33:02;;;;;;;16.02;2.67;;;18.10;99.90;;;;;;5014733;28;20050;-86
2022/11/01 12:35:42;;;;;;;17.85;2.90;;;18.30;99.90;;;;;;5018192;28;20054;-84
2022/11/01 12:38:54;;;;;;;15.50;2.80;;;18.20;99.90;;;;;;5089177;27;20401;-84
2022/11/01 12:41:38;;;;;;;11.93;2.42;;;17.80;99.90;;;;;;5087679;28;20082;-85
2022/11/01 12:44:31;;;;;;;13.13;2.97;;;18.00;99.90;;;;;;5089086;28;20056;-83
2022/11/01 12:47:12;;;;;;;16.92;3.15;;;17.90;99.90;;;;;;5072619;28;20044;-83
2022/11/01 12:49:44;;;;;;;16.58;4.63;;;17.70;99.90;;;;;;5092103;28;20052;-84
2022/11/01 12:52:24;;;;;;;10.50;2.53;;;17.90;99.90;;;;;;5097815;28;20052;-84
2022/11/01 12:55:43;;;;;;;16.80;3.05;;;17.80;99.90;;;;;;5089470;28;20048;-82
2022/11/01 12:58:14;;;;;;;17.98;3.40;;;18.10;99.90;;;;;;5061742;28;20102;-87
2022/11/01 13:00:54;;;;;;;19.23;3.95;;;18.00;99.90;;;;;;5088939;28;20052;-81
2022/11/01 13:03:31;;;;;;;18.33;3.17;;;18.00;99.90;;;;;;5093859;28;20059;-87
2022/11/01 13:06:14;;;;;;;14.80;3.17;;;17.80;99.90;;;;;;5100561;28;20052;-83